Albany, New Hampshire
Current Conditions -  °F | °C
As of 4:54 PM on Sunday 25 Jan 2015 (Local Time) from KIZG Reporting Station
Clear Clear  
Wind Chill:   Ceiling: Unl
Heat Index: 17°   Visibility: 10mi
Dew Point: -1°   Wind: 7mph
Humidity: 45%   Direction: NA
Pressure: 29.75"   Gusts: NA
Location:  43.9735°N, 71.2576°W
Report Text: KIZG 252154Z AUTO VRB06KT 10SM CLR M08/M18 A2975 RMK AO2 PK WND 28028/2055 PRESRR SLP083 T10831183
Loading
Personal Weather Stations






























Interactive Weather Map New forecast layout! Learn more

10-Day Weather Forecast

Advertisements
Track Severe Weather on mobile